createdAt,value
2022-12-18T00:02:25.827Z,100.00
2022-12-18T00:04:53.202Z,100.00
2022-12-18T00:07:20.651Z,100.00
2022-12-18T00:09:48.067Z,100.00
2022-12-18T00:12:15.525Z,100.00
2022-12-18T00:14:43.318Z,100.00
2022-12-18T00:17:10.848Z,100.00
2022-12-18T00:19:38.309Z,100.00
2022-12-18T00:22:07.043Z,100.00
2022-12-18T00:24:34.444Z,100.00
2022-12-18T00:27:01.945Z,100.00
2022-12-18T00:29:29.415Z,100.00
2022-12-18T00:31:56.903Z,100.00
2022-12-18T00:34:24.318Z,100.00
2022-12-18T00:36:53.389Z,100.00
2022-12-18T00:39:20.795Z,100.00
2022-12-18T00:42:25.588Z,100.00
2022-12-18T00:44:52.944Z,100.00
2022-12-18T00:47:20.300Z,100.00
2022-12-18T00:49:47.801Z,100.00
2022-12-18T00:52:15.317Z,99.77
2022-12-18T00:54:42.763Z,100.00
2022-12-18T00:57:10.164Z,100.00
2022-12-18T00:59:37.660Z,100.00
2022-12-18T01:02:05.264Z,100.00
2022-12-18T01:04:33.705Z,100.00
2022-12-18T01:07:04.239Z,100.00
2022-12-18T01:09:32.481Z,100.00
2022-12-18T01:11:59.895Z,100.00
2022-12-18T01:14:27.376Z,100.00
2022-12-18T01:16:54.906Z,100.00
2022-12-18T01:19:24.892Z,100.00
2022-12-18T01:21:53.536Z,100.00
2022-12-18T01:24:21.031Z,100.00
2022-12-18T01:26:51.445Z,100.00
2022-12-18T01:29:18.867Z,100.00
2022-12-18T01:31:46.448Z,100.00
2022-12-18T01:34:14.372Z,100.00
2022-12-18T01:36:42.881Z,100.00
2022-12-18T01:39:14.890Z,100.00
2022-12-18T01:42:01.821Z,100.00
2022-12-18T01:44:50.602Z,100.00
2022-12-18T01:47:29.819Z,100.00
2022-12-18T01:49:59.577Z,100.00
2022-12-18T01:52:30.325Z,100.00
2022-12-18T01:54:58.060Z,100.00
2022-12-18T01:57:29.063Z,100.00
2022-12-18T02:00:00.748Z,100.00
2022-12-18T02:02:30.109Z,100.00
2022-12-18T02:04:57.983Z,100.00
2022-12-18T02:08:02.982Z,100.00
2022-12-18T02:10:41.426Z,100.00
2022-12-18T02:13:44.943Z,100.00
2022-12-18T02:16:21.730Z,100.00
2022-12-18T02:18:55.413Z,100.00
2022-12-18T02:21:49.027Z,100.00
2022-12-18T02:24:45.493Z,99.54
2022-12-18T02:27:14.386Z,98.81
2022-12-18T02:29:56.034Z,100.00
2022-12-18T02:32:35.365Z,99.71
2022-12-18T02:35:07.116Z,99.12
2022-12-18T02:37:37.336Z,99.44
2022-12-18T02:40:07.427Z,100.00
2022-12-18T02:42:37.129Z,100.00
2022-12-18T02:45:07.817Z,100.00
2022-12-18T02:47:44.585Z,100.00
2022-12-18T02:50:28.892Z,100.00
2022-12-18T02:53:44.907Z,100.00
2022-12-18T02:56:21.548Z,100.00
2022-12-18T02:59:14.916Z,100.00
2022-12-18T03:01:59.942Z,100.00
2022-12-18T03:04:38.014Z,100.00
2022-12-18T03:07:11.685Z,100.00
2022-12-18T03:09:43.612Z,99.63
2022-12-18T03:12:25.600Z,99.26
2022-12-18T03:15:08.045Z,100.00
2022-12-18T03:20:47.184Z,99.83
2022-12-18T03:23:26.267Z,99.82
2022-12-18T03:26:01.862Z,98.78
2022-12-18T03:28:36.689Z,99.07
2022-12-18T03:31:09.686Z,99.52
2022-12-18T03:33:41.612Z,99.91
2022-12-18T03:36:09.524Z,100.00
2022-12-18T03:38:37.061Z,98.56
2022-12-18T03:41:17.731Z,97.29
2022-12-18T03:44:25.536Z,94.40
2022-12-18T03:46:57.901Z,94.56
2022-12-18T03:49:37.631Z,94.39
2022-12-18T03:52:27.003Z,90.82
2022-12-18T03:54:57.645Z,91.70
2022-12-18T03:57:29.467Z,93.60
2022-12-18T04:00:03.350Z,92.65
2022-12-18T04:02:46.584Z,93.06
2022-12-18T04:05:21.319Z,92.96
2022-12-18T04:07:52.395Z,95.67
2022-12-18T04:10:19.835Z,96.61
2022-12-18T04:12:47.749Z,94.05
2022-12-18T04:15:16.154Z,94.45
2022-12-18T04:18:25.051Z,92.59
2022-12-18T04:20:53.013Z,93.82
2022-12-18T04:23:20.409Z,96.77
2022-12-18T04:25:49.089Z,95.08
2022-12-18T04:28:24.027Z,93.69
2022-12-18T04:30:51.588Z,94.24
2022-12-18T04:33:21.022Z,95.00
2022-12-18T04:35:48.769Z,95.55
2022-12-18T04:38:16.569Z,93.62
2022-12-18T04:40:44.461Z,95.48
2022-12-18T04:43:21.180Z,96.75
2022-12-18T04:45:48.571Z,95.84
2022-12-18T04:48:16.028Z,95.70
2022-12-18T04:50:43.496Z,95.19
2022-12-18T04:53:10.848Z,95.75
2022-12-18T04:55:38.315Z,94.78
2022-12-18T04:58:06.265Z,94.56
2022-12-18T05:00:33.816Z,93.39
2022-12-18T05:03:03.348Z,92.69
2022-12-18T05:05:31.115Z,92.30
2022-12-18T05:07:58.579Z,91.82
2022-12-18T05:10:26.080Z,92.65
2022-12-18T05:13:00.363Z,93.87
2022-12-18T05:15:33.420Z,93.50
2022-12-18T05:18:11.504Z,92.00
2022-12-18T05:20:40.323Z,90.64
2022-12-18T05:23:08.178Z,88.35
2022-12-18T05:25:35.828Z,89.28
2022-12-18T05:28:03.652Z,90.98
2022-12-18T05:30:31.091Z,92.06
2022-12-18T05:32:58.446Z,87.18
2022-12-18T05:35:25.871Z,86.16
2022-12-18T05:37:53.280Z,85.77
2022-12-18T05:40:20.694Z,89.28
2022-12-18T05:42:48.072Z,90.13
2022-12-18T05:45:15.581Z,89.80
2022-12-18T05:47:43.124Z,90.96
2022-12-18T05:50:10.720Z,90.77
2022-12-18T05:52:38.166Z,89.49
2022-12-18T05:55:05.940Z,89.52
2022-12-18T05:57:33.377Z,90.34
2022-12-18T06:00:01.253Z,87.73
2022-12-18T06:02:28.786Z,90.27
2022-12-18T06:04:56.211Z,92.71
2022-12-18T06:07:23.624Z,90.71
2022-12-18T06:09:51.142Z,90.16
2022-12-18T06:12:18.593Z,91.58
2022-12-18T06:14:46.079Z,90.09
2022-12-18T06:17:13.442Z,89.46
2022-12-18T06:19:40.911Z,89.22
2022-12-18T06:22:08.552Z,91.47
2022-12-18T06:24:36.115Z,93.29
2022-12-18T06:27:03.516Z,94.20
2022-12-18T06:29:31.088Z,93.56
2022-12-18T06:31:58.582Z,94.56
2022-12-18T06:34:26.064Z,93.78
2022-12-18T06:36:53.495Z,93.70
2022-12-18T06:39:20.895Z,94.30
2022-12-18T06:41:48.299Z,95.15
2022-12-18T06:44:15.872Z,95.89
2022-12-18T06:46:43.330Z,95.79
2022-12-18T06:49:10.818Z,96.68
2022-12-18T06:51:38.356Z,97.37
2022-12-18T06:54:06.459Z,95.99
2022-12-18T06:56:33.949Z,96.23
2022-12-18T06:59:01.751Z,96.56
2022-12-18T07:01:29.270Z,96.74
2022-12-18T07:03:58.069Z,97.55
2022-12-18T07:06:27.188Z,97.69
2022-12-18T07:08:55.272Z,97.24
2022-12-18T07:11:23.082Z,98.17
2022-12-18T07:13:50.384Z,97.37
2022-12-18T07:16:24.710Z,97.62
2022-12-18T07:18:55.097Z,96.63
2022-12-18T07:21:23.637Z,96.78
2022-12-18T07:23:51.324Z,97.44
2022-12-18T07:26:20.721Z,96.60
2022-12-18T07:28:49.148Z,96.66
2022-12-18T07:31:20.333Z,96.59
2022-12-18T07:33:49.279Z,96.71
2022-12-18T07:36:17.149Z,97.13
2022-12-18T07:38:47.308Z,96.78
2022-12-18T07:41:14.724Z,97.36
2022-12-18T07:43:43.217Z,97.36
2022-12-18T07:46:13.516Z,96.93
2022-12-18T07:48:42.647Z,97.22
2022-12-18T07:51:13.554Z,96.87
2022-12-18T07:53:41.597Z,96.54
2022-12-18T07:56:27.325Z,96.62
2022-12-18T07:58:55.759Z,95.26
2022-12-18T08:01:23.320Z,93.90
2022-12-18T08:03:52.341Z,94.25
2022-12-18T08:06:22.562Z,94.67
2022-12-18T08:08:53.433Z,94.74
2022-12-18T08:11:20.903Z,94.35
2022-12-18T08:13:48.971Z,93.49
2022-12-18T08:16:18.063Z,93.53
2022-12-18T08:18:45.484Z,92.90
2022-12-18T08:21:16.140Z,93.54
2022-12-18T08:23:44.214Z,94.29
2022-12-18T08:26:13.004Z,93.57
2022-12-18T08:28:41.034Z,91.98
2022-12-18T08:31:09.497Z,92.95
2022-12-18T08:33:39.019Z,93.08
2022-12-18T08:36:07.134Z,93.19
2022-12-18T08:38:34.562Z,92.70
2022-12-18T08:41:03.594Z,92.88
2022-12-18T08:43:49.660Z,92.70
2022-12-18T08:46:19.105Z,92.88
2022-12-18T08:48:47.101Z,93.13
2022-12-18T08:51:17.373Z,93.77
2022-12-18T08:53:45.654Z,93.47
2022-12-18T08:56:14.213Z,92.71
2022-12-18T08:58:42.075Z,93.70
2022-12-18T09:01:12.073Z,94.13
2022-12-18T09:03:40.411Z,92.86
2022-12-18T09:06:08.622Z,92.03
2022-12-18T09:08:36.326Z,91.68
2022-12-18T09:11:04.100Z,92.17
2022-12-18T09:13:31.813Z,92.05
2022-12-18T09:15:59.354Z,92.03
2022-12-18T09:18:26.679Z,92.89
2022-12-18T09:20:54.199Z,92.28
2022-12-18T09:23:22.014Z,91.40
2022-12-18T09:25:49.741Z,91.17
2022-12-18T09:28:19.232Z,89.94
2022-12-18T09:30:49.793Z,89.34
2022-12-18T09:33:18.072Z,89.54
2022-12-18T09:35:46.725Z,89.41
2022-12-18T09:38:20.062Z,88.05
2022-12-18T09:40:54.645Z,88.50
2022-12-18T09:43:42.225Z,87.29
2022-12-18T09:46:19.396Z,87.01
2022-12-18T09:48:50.916Z,86.58
2022-12-18T09:51:25.932Z,87.51
2022-12-18T09:53:59.439Z,87.43
2022-12-18T09:56:32.650Z,87.00
2022-12-18T09:59:02.777Z,86.82
2022-12-18T10:01:41.491Z,86.28
2022-12-18T10:04:11.313Z,85.17
2022-12-18T10:07:09.173Z,84.66
2022-12-18T10:09:48.304Z,84.10
2022-12-18T10:12:49.160Z,82.32
2022-12-18T10:15:54.054Z,81.17
2022-12-18T10:19:03.219Z,81.61
2022-12-18T10:21:45.551Z,81.46
2022-12-18T10:24:21.280Z,80.61
2022-12-18T10:26:49.028Z,80.79
2022-12-18T10:29:18.192Z,79.78
2022-12-18T10:31:45.587Z,79.47
2022-12-18T10:34:15.473Z,79.88
2022-12-18T10:36:43.357Z,79.16
2022-12-18T10:39:17.010Z,79.52
2022-12-18T10:41:44.404Z,77.73
2022-12-18T10:44:21.351Z,78.99
2022-12-18T10:46:57.048Z,78.48
2022-12-18T10:49:28.633Z,79.72
2022-12-18T10:52:22.928Z,78.48
2022-12-18T10:54:53.392Z,78.69
2022-12-18T10:57:26.956Z,79.84
2022-12-18T10:59:56.903Z,79.79
2022-12-18T11:02:28.809Z,80.09
2022-12-18T11:04:59.313Z,80.86
2022-12-18T11:07:26.628Z,81.36
2022-12-18T11:10:16.945Z,80.85
2022-12-18T11:12:44.439Z,80.35
2022-12-18T11:15:30.764Z,80.43
2022-12-18T11:17:58.163Z,80.48
2022-12-18T11:20:58.195Z,80.28
2022-12-18T11:23:27.265Z,80.44
2022-12-18T11:26:03.497Z,80.37
2022-12-18T11:28:42.456Z,79.91
2022-12-18T11:31:28.851Z,80.58
2022-12-18T11:37:00.694Z,82.14
2022-12-18T11:39:27.978Z,82.79
2022-12-18T11:42:13.584Z,81.13
2022-12-18T11:44:43.897Z,81.77
2022-12-18T11:47:20.452Z,82.62
2022-12-18T11:49:52.256Z,83.08
2022-12-18T11:52:24.981Z,83.22
2022-12-18T11:54:54.367Z,83.73
2022-12-18T11:57:53.759Z,83.00
2022-12-18T12:00:22.403Z,83.33
2022-12-18T12:03:11.319Z,84.30
2022-12-18T12:05:57.057Z,82.43
2022-12-18T12:08:45.997Z,82.94
2022-12-18T12:11:25.573Z,82.70
2022-12-18T12:14:04.994Z,83.24
2022-12-18T12:16:44.422Z,83.89
2022-12-18T12:20:10.680Z,83.96
2022-12-18T12:23:05.494Z,84.77
2022-12-18T12:25:45.767Z,84.88
2022-12-18T12:28:31.879Z,80.92
2022-12-18T12:31:17.025Z,78.38
2022-12-18T12:34:02.276Z,77.93
2022-12-18T12:37:03.725Z,75.65
2022-12-18T12:39:39.019Z,74.33
2022-12-18T12:42:35.273Z,71.79
2022-12-18T12:45:06.968Z,74.20
2022-12-18T12:47:42.700Z,71.00
2022-12-18T12:50:16.620Z,69.73
2022-12-18T12:52:48.536Z,70.47
2022-12-18T12:55:23.206Z,71.73
2022-12-18T12:58:02.275Z,72.26
2022-12-18T13:00:40.908Z,71.88
2022-12-18T13:03:48.396Z,71.15
2022-12-18T13:06:44.415Z,71.19
2022-12-18T13:09:12.785Z,70.57
2022-12-18T13:12:02.137Z,71.30
2022-12-18T13:14:32.966Z,72.83
2022-12-18T13:17:22.153Z,72.29
2022-12-18T13:20:04.282Z,72.59
2022-12-18T13:22:38.057Z,71.34
2022-12-18T13:25:31.153Z,70.10
2022-12-18T13:28:03.165Z,70.46
2022-12-18T13:30:33.185Z,70.79
2022-12-18T13:33:15.557Z,69.87
2022-12-18T13:35:46.781Z,70.31
2022-12-18T13:38:32.288Z,70.05
2022-12-18T13:41:02.543Z,70.31
2022-12-18T13:43:45.330Z,69.62
2022-12-18T13:46:22.253Z,70.21
2022-12-18T13:48:51.467Z,70.62
2022-12-18T13:51:20.980Z,70.47
2022-12-18T13:53:57.888Z,69.89
2022-12-18T13:56:29.447Z,69.84
2022-12-18T13:59:22.077Z,70.42
2022-12-18T14:01:59.332Z,69.73
2022-12-18T14:04:34.636Z,69.72
2022-12-18T14:07:11.602Z,69.59
2022-12-18T14:09:44.432Z,69.00
2022-12-18T14:12:56.633Z,69.69
2022-12-18T14:15:27.220Z,68.67
2022-12-18T14:17:59.448Z,70.49
2022-12-18T14:20:29.509Z,72.08
2022-12-18T14:22:58.620Z,72.77
2022-12-18T14:25:31.021Z,72.04
2022-12-18T14:28:15.144Z,72.24
2022-12-18T14:30:44.505Z,72.51
2022-12-18T14:33:16.810Z,72.65
2022-12-18T14:35:55.112Z,73.56
2022-12-18T14:38:28.142Z,74.04
2022-12-18T14:40:56.430Z,74.14
2022-12-18T14:43:28.278Z,74.15
2022-12-18T14:45:56.851Z,74.33
2022-12-18T14:48:43.621Z,74.42
2022-12-18T14:51:16.079Z,74.03
2022-12-18T14:54:05.434Z,73.97
2022-12-18T14:56:38.482Z,75.11
2022-12-18T14:59:25.215Z,74.90
2022-12-18T15:01:59.632Z,75.35
2022-12-18T15:04:44.636Z,76.56
2022-12-18T15:07:14.644Z,77.33
2022-12-18T15:09:45.600Z,78.25
2022-12-18T15:12:43.456Z,78.64
2022-12-18T15:15:38.749Z,78.76
2022-12-18T15:18:09.679Z,79.55
2022-12-18T15:20:43.717Z,79.84
2022-12-18T15:23:51.585Z,79.99
2022-12-18T15:26:21.842Z,79.47
2022-12-18T15:28:53.578Z,79.47
2022-12-18T15:31:35.806Z,80.98
2022-12-18T15:34:20.255Z,81.11
2022-12-18T15:36:47.919Z,81.34
2022-12-18T15:39:15.316Z,81.48
2022-12-18T15:42:03.034Z,81.78
2022-12-18T15:44:33.724Z,83.06
2022-12-18T15:47:01.135Z,83.13
2022-12-18T15:49:28.515Z,83.42
2022-12-18T15:51:59.074Z,84.09
2022-12-18T15:54:56.270Z,84.57
2022-12-18T15:57:27.528Z,84.82
2022-12-18T15:59:59.125Z,86.78
2022-12-18T16:02:27.374Z,89.37
2022-12-18T16:04:55.222Z,90.65
2022-12-18T16:07:24.920Z,92.78
2022-12-18T16:09:53.643Z,93.63
2022-12-18T16:12:26.136Z,93.58
2022-12-18T16:14:53.601Z,94.48
2022-12-18T16:17:21.010Z,95.28
2022-12-18T16:19:48.591Z,95.82
2022-12-18T16:22:28.153Z,96.77
2022-12-18T16:24:57.296Z,97.37
2022-12-18T16:27:25.952Z,96.71
2022-12-18T16:29:53.404Z,98.12
2022-12-18T16:32:22.493Z,98.93
2022-12-18T16:34:51.056Z,98.93
2022-12-18T16:37:18.652Z,99.52
2022-12-18T16:39:46.136Z,100.00
2022-12-18T16:42:20.015Z,100.00
2022-12-18T16:44:49.081Z,100.00
2022-12-18T16:47:17.159Z,100.00
2022-12-18T16:49:51.768Z,100.00
2022-12-18T16:52:20.183Z,100.00
2022-12-18T16:54:47.733Z,100.00
2022-12-18T16:57:18.081Z,100.00
2022-12-18T16:59:46.084Z,100.00
2022-12-18T17:02:24.513Z,100.00
2022-12-18T17:04:56.829Z,100.00
2022-12-18T17:07:25.463Z,100.00
2022-12-18T17:09:54.321Z,100.00
2022-12-18T17:12:22.494Z,100.00
2022-12-18T17:14:50.163Z,100.00
2022-12-18T17:17:21.396Z,100.00
2022-12-18T17:19:51.750Z,100.00
2022-12-18T17:22:20.264Z,100.00
2022-12-18T17:24:48.043Z,100.00
2022-12-18T17:27:15.826Z,100.00
2022-12-18T17:29:47.807Z,100.00
2022-12-18T17:32:17.099Z,100.00
2022-12-18T17:34:44.685Z,100.00
2022-12-18T17:37:12.528Z,100.00
2022-12-18T17:39:39.965Z,100.00
2022-12-18T17:42:08.681Z,100.00
2022-12-18T17:44:38.336Z,100.00
2022-12-18T17:47:06.242Z,100.00
2022-12-18T17:49:33.717Z,100.00
2022-12-18T17:52:01.148Z,100.00
2022-12-18T17:54:28.619Z,100.00
2022-12-18T17:56:56.058Z,97.33
2022-12-18T17:59:24.408Z,94.78
2022-12-18T18:01:51.966Z,89.37
2022-12-18T18:04:19.744Z,87.43
2022-12-18T18:06:47.212Z,85.46
2022-12-18T18:09:16.427Z,86.12
2022-12-18T18:12:06.175Z,85.93
2022-12-18T18:14:33.739Z,84.25
2022-12-18T18:17:04.205Z,84.40
2022-12-18T18:19:57.243Z,84.28
2022-12-18T18:22:24.804Z,84.88
2022-12-18T18:24:52.640Z,84.47
2022-12-18T18:27:20.003Z,83.10
2022-12-18T18:29:47.735Z,81.85
2022-12-18T18:32:15.101Z,83.27
2022-12-18T18:34:42.746Z,83.09
2022-12-18T18:37:11.809Z,82.71
2022-12-18T18:39:39.299Z,79.15
2022-12-18T18:42:07.025Z,78.71
2022-12-18T18:44:35.221Z,79.37
2022-12-18T18:47:02.701Z,78.72
2022-12-18T18:49:33.008Z,79.04
2022-12-18T18:52:01.620Z,78.57
2022-12-18T18:54:29.470Z,79.07
2022-12-18T18:57:19.892Z,77.78
2022-12-18T18:59:44.220Z,77.87
2022-12-18T19:02:13.433Z,78.65
2022-12-18T19:04:43.654Z,79.09
2022-12-18T19:07:28.129Z,79.20
2022-12-18T19:10:03.468Z,79.48
2022-12-18T19:12:50.840Z,79.87
2022-12-18T19:15:18.387Z,79.99
2022-12-18T19:17:47.217Z,81.59
2022-12-18T19:20:15.919Z,80.15
2022-12-18T19:22:43.405Z,79.63
2022-12-18T19:25:13.536Z,80.18
2022-12-18T19:27:41.022Z,80.68
2022-12-18T19:30:09.197Z,81.83
2022-12-18T19:32:36.676Z,81.61
2022-12-18T19:35:04.316Z,81.41
2022-12-18T19:37:31.954Z,81.71
2022-12-18T19:39:59.596Z,83.37
2022-12-18T19:42:35.191Z,82.63
2022-12-18T19:45:06.548Z,82.51
2022-12-18T19:47:33.902Z,82.32
2022-12-18T19:50:01.295Z,82.85
2022-12-18T19:52:28.865Z,84.43
2022-12-18T19:54:56.365Z,84.72
2022-12-18T19:57:23.775Z,83.70
2022-12-18T19:59:51.197Z,83.79
2022-12-18T20:02:20.125Z,83.92
2022-12-18T20:04:49.083Z,83.96
2022-12-18T20:07:16.538Z,83.65
2022-12-18T20:09:44.035Z,85.38
2022-12-18T20:12:12.017Z,88.16
2022-12-18T20:14:39.397Z,91.04
2022-12-18T20:17:06.885Z,93.40
2022-12-18T20:19:36.894Z,94.10
2022-12-18T20:22:04.576Z,95.00
2022-12-18T20:24:32.055Z,95.30
2022-12-18T20:26:59.545Z,95.68
2022-12-18T20:29:26.909Z,95.91
2022-12-18T20:31:54.381Z,94.84
2022-12-18T20:34:22.104Z,95.02
2022-12-18T20:36:50.146Z,95.24
2022-12-18T20:39:18.773Z,95.90
2022-12-18T20:41:46.574Z,95.49
2022-12-18T20:44:22.715Z,94.32
2022-12-18T20:46:56.723Z,94.79
2022-12-18T20:49:25.769Z,94.58
2022-12-18T20:51:56.175Z,95.62
2022-12-18T20:54:26.815Z,95.17
2022-12-18T20:56:54.564Z,94.53
2022-12-18T20:59:23.301Z,95.61
2022-12-18T21:01:52.136Z,94.81
2022-12-18T21:04:22.990Z,94.97
2022-12-18T21:06:55.727Z,94.63
2022-12-18T21:09:37.107Z,94.50
2022-12-18T21:12:33.483Z,94.54
2022-12-18T21:15:10.967Z,94.92
2022-12-18T21:17:44.224Z,95.19
2022-12-18T21:20:17.288Z,95.38
2022-12-18T21:22:45.785Z,95.22
2022-12-18T21:25:13.152Z,94.90
2022-12-18T21:27:41.135Z,94.70
2022-12-18T21:30:09.011Z,94.92
2022-12-18T21:32:36.718Z,95.12
2022-12-18T21:35:04.372Z,96.24
2022-12-18T21:37:31.815Z,95.38
2022-12-18T21:39:59.158Z,94.43
2022-12-18T21:42:45.379Z,95.53
2022-12-18T21:45:12.753Z,95.53
2022-12-18T21:47:40.208Z,95.25
2022-12-18T21:50:07.867Z,94.87
2022-12-18T21:52:35.307Z,94.02
2022-12-18T21:55:08.924Z,94.85
2022-12-18T21:57:39.190Z,95.05
2022-12-18T22:00:11.222Z,94.54
2022-12-18T22:02:46.826Z,95.02
2022-12-18T22:05:14.490Z,94.52
2022-12-18T22:07:41.891Z,94.61
2022-12-18T22:10:09.649Z,94.71
2022-12-18T22:12:41.584Z,95.05
2022-12-18T22:15:17.007Z,94.60
2022-12-18T22:17:51.047Z,94.61
2022-12-18T22:20:20.214Z,94.63
2022-12-18T22:22:48.772Z,94.52
2022-12-18T22:25:16.277Z,96.35
2022-12-18T22:28:04.588Z,95.30
2022-12-18T22:30:32.103Z,94.84
2022-12-18T22:32:59.731Z,94.18
2022-12-18T22:35:27.127Z,95.36
2022-12-18T22:37:54.547Z,93.77
2022-12-18T22:40:27.075Z,94.27
2022-12-18T22:42:55.975Z,94.02
2022-12-18T22:45:26.931Z,94.64
2022-12-18T22:47:54.555Z,95.09
2022-12-18T22:50:21.961Z,95.20
2022-12-18T22:52:49.349Z,94.92
2022-12-18T22:55:16.901Z,95.40
2022-12-18T22:57:48.561Z,95.53
2022-12-18T23:00:24.114Z,96.07
2022-12-18T23:02:59.294Z,95.80
2022-12-18T23:05:32.040Z,95.62
2022-12-18T23:07:59.497Z,95.68
2022-12-18T23:10:27.453Z,95.55
2022-12-18T23:12:54.928Z,95.41
2022-12-18T23:15:27.863Z,95.13
2022-12-18T23:17:59.384Z,95.51
2022-12-18T23:20:27.599Z,95.14
2022-12-18T23:22:55.165Z,95.57
2022-12-18T23:25:23.013Z,95.42
2022-12-18T23:27:50.582Z,94.83
2022-12-18T23:30:17.970Z,94.53
2022-12-18T23:32:45.430Z,93.87
2022-12-18T23:35:13.328Z,93.96
2022-12-18T23:38:00.111Z,93.38
2022-12-18T23:40:29.338Z,94.54
2022-12-18T23:42:56.983Z,94.04
2022-12-18T23:45:24.339Z,92.85
2022-12-18T23:47:51.807Z,92.99
2022-12-18T23:50:19.166Z,94.58
2022-12-18T23:52:50.154Z,95.02
2022-12-18T23:55:17.696Z,95.30
2022-12-18T23:57:45.108Z,95.86
